Newport, OR

4:54 PM PDT on August 20, 2014 (GMT -0700)
Schooner Point | Change Station
CLOSE
Current Station
Personal Weather Station
Location: Newport, OR
Elevation: 120 ft
Nearby Weather Stations

Elev 120 ft 44.69 °N, 124.07 °W | Updated 2 seconds ago

Clear
Clear
61.9 °F
Feels Like 61.9 °F
N
6.0
Wind Variable Wind from NNW
Gusts 8.0 mph

Today
High -- | Low -- °F
--% Chance of Precip.
Yesterday
High -- | Low -- °F
Precip. -- in
6:24 AM 8:13 PM
Waning Crescent, 18% visible
Pressure 30.05 in
Visibility 10.0 miles
Clouds Clear
Dew Point -20 °F
Humidity 3%
Rainfall 0.00 in
Snow Depth Not available.
UV 5 out of 12
Pollen 3.90 out of 12
Air Quality Not available.
Flu Activity Not available.
METAR KONP 202335Z AUTO 32007KT 10SM CLR 18/13 A3005 RMK AO2

More Conditions Fewer Conditions

Pressure 30.05 in
Visibility 10.0 miles
Clouds Clear
Dew Point -20 °F
Humidity 3%
Rainfall 0.00 in
Snow Depth Not available.
UV 5 out of 12
Pollen 3.90 out of 12
Air Quality Not available.
Flu Activity Not available.
METAR KONP 202335Z AUTO 32007KT 10SM CLR 18/13 A3005 RMK AO2

More Conditions Fewer Conditions

10-Day Weather Forecast

Almanac

Astronomy

Aug. 20, 2014 Rise Set
Actual Time 6:24 AM PDT 8:13 PM PDT
Civil Twilight 5:53 AM PDT 8:44 PM PDT
Nautical Twilight 5:15 AM PDT 9:22 PM PDT
Astronomical Twilight 4:33 AM PDT 10:03 PM PDT
Moon 2:04 AM PDT 5:06 PM PDT
Length of Visible Light 14h 51m
Length of Day
13h 48m
Tomorrow will be 2m 51s shorter.
Waning Crescent, 18% of the Moon is Illuminated
Today
Waning Crescent
Aug 25
New
Sep 2
First Quarter
Sep 8
Full
Sep 15
Last Quarter

Today's Extremes

State Highs State Lows

Community

WunderPhotos

Upload Photos

1,745,801 photos uploaded!

Nearby

Snow Depth

Station Depth Elevation
Seine Creek 0 in 2000 ft
Daly Lake 0 in 3600 ft
Holland Meadows 0 in 4900 ft
Santiam Junction 0 in 3750 ft
Peavine Ridge 0 in 3500 ft

Earthquake Activity

City Distance Mag. Time & Date
No recent earthquake activity has been reported nearby.
Minimum magnitude displayed is 2.5.

Coastal Water Temperatures

Place Temperature
South Beach, OR 55.0 °F
Charleston, OR 55.9 °F

Nearby Weather Stations